sensor_id;sensor_type;location;lat;lon;timestamp;P1;durP1;ratioP1;P2;durP2;ratioP2
75526;SDS011;64107;49.248;7.006;2023-06-26T00:01:23;4.22;;;3.35;;
75526;SDS011;64107;49.248;7.006;2023-06-26T00:03:55;3.70;;;3.15;;
75526;SDS011;64107;49.248;7.006;2023-06-26T00:06:22;4.53;;;3.30;;
75526;SDS011;64107;49.248;7.006;2023-06-26T00:08:49;5.10;;;3.10;;
75526;SDS011;64107;49.248;7.006;2023-06-26T00:11:15;3.50;;;2.80;;
75526;SDS011;64107;49.248;7.006;2023-06-26T00:13:42;4.95;;;3.15;;
75526;SDS011;64107;49.248;7.006;2023-06-26T00:16:08;6.18;;;3.97;;
75526;SDS011;64107;49.248;7.006;2023-06-26T00:18:34;5.55;;;3.88;;
75526;SDS011;64107;49.248;7.006;2023-06-26T00:21:00;7.03;;;4.68;;
75526;SDS011;64107;49.248;7.006;2023-06-26T00:23:26;4.93;;;3.67;;
75526;SDS011;64107;49.248;7.006;2023-06-26T00:25:52;5.97;;;4.00;;
75526;SDS011;64107;49.248;7.006;2023-06-26T00:28:18;6.10;;;3.97;;
75526;SDS011;64107;49.248;7.006;2023-06-26T00:30:44;5.10;;;3.78;;
75526;SDS011;64107;49.248;7.006;2023-06-26T00:33:10;4.78;;;3.33;;
75526;SDS011;64107;49.248;7.006;2023-06-26T00:35:36;6.13;;;3.90;;
75526;SDS011;64107;49.248;7.006;2023-06-26T00:38:02;6.43;;;3.78;;
75526;SDS011;64107;49.248;7.006;2023-06-26T00:40:29;5.32;;;4.00;;
75526;SDS011;64107;49.248;7.006;2023-06-26T00:42:55;5.68;;;3.75;;
75526;SDS011;64107;49.248;7.006;2023-06-26T00:45:21;5.32;;;3.38;;
75526;SDS011;64107;49.248;7.006;2023-06-26T00:47:47;6.75;;;4.72;;
75526;SDS011;64107;49.248;7.006;2023-06-26T00:50:13;6.63;;;5.00;;
75526;SDS011;64107;49.248;7.006;2023-06-26T00:52:41;6.20;;;4.32;;
75526;SDS011;64107;49.248;7.006;2023-06-26T00:55:07;5.82;;;4.35;;
75526;SDS011;64107;49.248;7.006;2023-06-26T00:57:33;5.22;;;4.25;;
75526;SDS011;64107;49.248;7.006;2023-06-26T01:00:00;7.35;;;4.10;;
75526;SDS011;64107;49.248;7.006;2023-06-26T01:02:29;8.85;;;4.68;;
75526;SDS011;64107;49.248;7.006;2023-06-26T01:04:59;5.88;;;4.15;;
75526;SDS011;64107;49.248;7.006;2023-06-26T01:07:31;4.65;;;3.72;;
75526;SDS011;64107;49.248;7.006;2023-06-26T01:10:01;6.07;;;3.75;;
75526;SDS011;64107;49.248;7.006;2023-06-26T01:12:28;5.82;;;3.65;;
75526;SDS011;64107;49.248;7.006;2023-06-26T01:14:56;6.63;;;4.00;;
75526;SDS011;64107;49.248;7.006;2023-06-26T01:17:22;5.95;;;3.40;;
75526;SDS011;64107;49.248;7.006;2023-06-26T01:19:49;6.30;;;3.60;;
75526;SDS011;64107;49.248;7.006;2023-06-26T01:27:50;4.75;;;3.60;;
75526;SDS011;64107;49.248;7.006;2023-06-26T01:30:17;4.57;;;3.60;;
75526;SDS011;64107;49.248;7.006;2023-06-26T01:32:44;5.05;;;3.38;;
75526;SDS011;64107;49.248;7.006;2023-06-26T01:35:10;5.72;;;3.92;;
75526;SDS011;64107;49.248;7.006;2023-06-26T01:37:37;5.63;;;3.80;;
75526;SDS011;64107;49.248;7.006;2023-06-26T01:40:03;5.60;;;3.65;;
75526;SDS011;64107;49.248;7.006;2023-06-26T01:42:31;5.75;;;4.30;;
75526;SDS011;64107;49.248;7.006;2023-06-26T01:45:02;7.53;;;4.25;;
75526;SDS011;64107;49.248;7.006;2023-06-26T01:47:40;5.32;;;3.65;;
75526;SDS011;64107;49.248;7.006;2023-06-26T01:50:12;5.85;;;3.78;;
75526;SDS011;64107;49.248;7.006;2023-06-26T01:53:04;5.05;;;4.10;;
75526;SDS011;64107;49.248;7.006;2023-06-26T01:56:20;5.80;;;3.78;;
75526;SDS011;64107;49.248;7.006;2023-06-26T01:58:43;7.00;;;3.83;;
75526;SDS011;64107;49.248;7.006;2023-06-26T02:01:11;5.45;;;3.53;;
75526;SDS011;64107;49.248;7.006;2023-06-26T02:03:37;6.38;;;3.72;;
75526;SDS011;64107;49.248;7.006;2023-06-26T02:06:03;5.63;;;3.85;;
75526;SDS011;64107;49.248;7.006;2023-06-26T02:08:30;9.73;;;4.78;;
75526;SDS011;64107;49.248;7.006;2023-06-26T02:10:56;4.88;;;3.50;;
75526;SDS011;64107;49.248;7.006;2023-06-26T02:13:22;7.45;;;3.88;;
75526;SDS011;64107;49.248;7.006;2023-06-26T02:15:48;5.97;;;3.53;;
75526;SDS011;64107;49.248;7.006;2023-06-26T02:18:14;6.30;;;4.00;;
75526;SDS011;64107;49.248;7.006;2023-06-26T02:20:40;5.90;;;4.18;;
75526;SDS011;64107;49.248;7.006;2023-06-26T02:23:06;7.15;;;4.40;;
75526;SDS011;64107;49.248;7.006;2023-06-26T02:25:32;6.38;;;4.40;;
75526;SDS011;64107;49.248;7.006;2023-06-26T02:27:58;5.35;;;3.88;;
75526;SDS011;64107;49.248;7.006;2023-06-26T02:30:24;5.95;;;4.22;;
75526;SDS011;64107;49.248;7.006;2023-06-26T02:32:50;8.73;;;3.97;;
75526;SDS011;64107;49.248;7.006;2023-06-26T02:35:16;6.18;;;3.90;;
75526;SDS011;64107;49.248;7.006;2023-06-26T02:37:42;7.30;;;4.70;;
75526;SDS011;64107;49.248;7.006;2023-06-26T02:40:09;7.25;;;4.57;;
75526;SDS011;64107;49.248;7.006;2023-06-26T02:42:36;6.70;;;3.90;;
75526;SDS011;64107;49.248;7.006;2023-06-26T02:45:03;5.68;;;3.72;;
75526;SDS011;64107;49.248;7.006;2023-06-26T02:47:29;7.40;;;4.38;;
75526;SDS011;64107;49.248;7.006;2023-06-26T02:49:55;7.40;;;3.83;;
75526;SDS011;64107;49.248;7.006;2023-06-26T02:52:21;7.05;;;4.18;;
75526;SDS011;64107;49.248;7.006;2023-06-26T02:54:47;5.05;;;3.78;;
75526;SDS011;64107;49.248;7.006;2023-06-26T02:57:13;6.30;;;4.25;;
75526;SDS011;64107;49.248;7.006;2023-06-26T02:59:39;7.10;;;4.25;;
75526;SDS011;64107;49.248;7.006;2023-06-26T03:02:06;7.35;;;4.38;;
75526;SDS011;64107;49.248;7.006;2023-06-26T03:04:32;5.80;;;3.90;;
75526;SDS011;64107;49.248;7.006;2023-06-26T03:07:01;7.13;;;4.47;;
75526;SDS011;64107;49.248;7.006;2023-06-26T03:09:27;6.22;;;4.10;;
75526;SDS011;64107;49.248;7.006;2023-06-26T03:11:53;5.72;;;3.95;;
75526;SDS011;64107;49.248;7.006;2023-06-26T03:14:20;6.15;;;3.95;;
75526;SDS011;64107;49.248;7.006;2023-06-26T03:16:46;8.80;;;5.57;;
75526;SDS011;64107;49.248;7.006;2023-06-26T03:19:12;7.05;;;4.47;;
75526;SDS011;64107;49.248;7.006;2023-06-26T03:21:38;7.03;;;3.95;;
75526;SDS011;64107;49.248;7.006;2023-06-26T03:24:05;7.43;;;4.32;;
75526;SDS011;64107;49.248;7.006;2023-06-26T03:26:31;6.85;;;4.05;;
75526;SDS011;64107;49.248;7.006;2023-06-26T03:28:57;7.03;;;4.75;;
75526;SDS011;64107;49.248;7.006;2023-06-26T03:31:23;7.55;;;4.30;;
75526;SDS011;64107;49.248;7.006;2023-06-26T03:33:49;5.40;;;3.90;;
75526;SDS011;64107;49.248;7.006;2023-06-26T03:36:15;5.97;;;4.25;;
75526;SDS011;64107;49.248;7.006;2023-06-26T03:38:41;6.32;;;4.15;;
75526;SDS011;64107;49.248;7.006;2023-06-26T03:41:07;4.20;;;3.50;;
75526;SDS011;64107;49.248;7.006;2023-06-26T03:43:34;6.38;;;4.30;;
75526;SDS011;64107;49.248;7.006;2023-06-26T03:46:00;6.35;;;4.22;;
75526;SDS011;64107;49.248;7.006;2023-06-26T03:48:26;7.65;;;4.20;;
75526;SDS011;64107;49.248;7.006;2023-06-26T03:50:52;6.75;;;4.20;;
75526;SDS011;64107;49.248;7.006;2023-06-26T03:53:18;6.20;;;4.18;;
75526;SDS011;64107;49.248;7.006;2023-06-26T03:55:44;6.25;;;4.45;;
75526;SDS011;64107;49.248;7.006;2023-06-26T03:58:10;6.82;;;4.07;;
75526;SDS011;64107;49.248;7.006;2023-06-26T04:00:37;6.10;;;4.55;;
75526;SDS011;64107;49.248;7.006;2023-06-26T04:03:03;6.15;;;3.67;;
75526;SDS011;64107;49.248;7.006;2023-06-26T04:05:29;6.05;;;4.07;;
75526;SDS011;64107;49.248;7.006;2023-06-26T04:07:55;8.20;;;4.53;;
75526;SDS011;64107;49.248;7.006;2023-06-26T04:10:21;8.55;;;4.72;;
75526;SDS011;64107;49.248;7.006;2023-06-26T04:12:47;7.63;;;4.15;;
75526;SDS011;64107;49.248;7.006;2023-06-26T04:15:13;5.78;;;4.07;;
75526;SDS011;64107;49.248;7.006;2023-06-26T04:17:39;6.85;;;3.92;;
75526;SDS011;64107;49.248;7.006;2023-06-26T04:20:06;6.38;;;4.53;;
75526;SDS011;64107;49.248;7.006;2023-06-26T04:22:33;4.90;;;4.20;;
75526;SDS011;64107;49.248;7.006;2023-06-26T04:25:01;6.47;;;4.38;;
75526;SDS011;64107;49.248;7.006;2023-06-26T04:27:28;5.90;;;4.57;;
75526;SDS011;64107;49.248;7.006;2023-06-26T04:29:55;6.63;;;4.75;;
75526;SDS011;64107;49.248;7.006;2023-06-26T04:32:21;8.63;;;4.63;;
75526;SDS011;64107;49.248;7.006;2023-06-26T04:34:48;5.45;;;4.03;;
75526;SDS011;64107;49.248;7.006;2023-06-26T04:37:14;7.78;;;4.28;;
75526;SDS011;64107;49.248;7.006;2023-06-26T04:39:43;6.22;;;4.35;;
75526;SDS011;64107;49.248;7.006;2023-06-26T04:42:10;6.80;;;4.00;;
75526;SDS011;64107;49.248;7.006;2023-06-26T04:44:37;6.20;;;4.28;;
75526;SDS011;64107;49.248;7.006;2023-06-26T04:47:03;6.88;;;4.53;;
75526;SDS011;64107;49.248;7.006;2023-06-26T04:49:29;5.50;;;3.83;;
75526;SDS011;64107;49.248;7.006;2023-06-26T04:51:56;5.40;;;4.47;;
75526;SDS011;64107;49.248;7.006;2023-06-26T04:54:25;6.40;;;4.38;;
75526;SDS011;64107;49.248;7.006;2023-06-26T04:56:52;7.15;;;5.22;;
75526;SDS011;64107;49.248;7.006;2023-06-26T04:59:18;6.43;;;3.92;;
75526;SDS011;64107;49.248;7.006;2023-06-26T05:01:44;10.48;;;4.85;;
75526;SDS011;64107;49.248;7.006;2023-06-26T05:04:12;7.15;;;4.53;;
75526;SDS011;64107;49.248;7.006;2023-06-26T05:06:40;7.88;;;4.85;;
75526;SDS011;64107;49.248;7.006;2023-06-26T05:09:06;6.35;;;4.60;;
75526;SDS011;64107;49.248;7.006;2023-06-26T05:11:32;7.18;;;4.72;;
75526;SDS011;64107;49.248;7.006;2023-06-26T05:13:58;7.05;;;4.28;;
75526;SDS011;64107;49.248;7.006;2023-06-26T05:16:24;7.13;;;4.70;;
75526;SDS011;64107;49.248;7.006;2023-06-26T05:18:50;7.32;;;5.00;;
75526;SDS011;64107;49.248;7.006;2023-06-26T05:21:17;6.00;;;5.28;;
75526;SDS011;64107;49.248;7.006;2023-06-26T05:23:43;5.90;;;4.30;;
75526;SDS011;64107;49.248;7.006;2023-06-26T05:26:10;7.07;;;4.85;;
75526;SDS011;64107;49.248;7.006;2023-06-26T05:28:38;6.47;;;4.93;;
75526;SDS011;64107;49.248;7.006;2023-06-26T05:31:04;8.57;;;5.22;;
75526;SDS011;64107;49.248;7.006;2023-06-26T05:33:30;10.48;;;5.45;;
75526;SDS011;64107;49.248;7.006;2023-06-26T05:35:57;7.55;;;5.13;;
75526;SDS011;64107;49.248;7.006;2023-06-26T05:38:24;7.78;;;5.10;;
75526;SDS011;64107;49.248;7.006;2023-06-26T05:40:50;9.63;;;5.70;;
75526;SDS011;64107;49.248;7.006;2023-06-26T05:43:17;7.75;;;4.90;;
75526;SDS011;64107;49.248;7.006;2023-06-26T05:45:46;8.65;;;5.53;;
75526;SDS011;64107;49.248;7.006;2023-06-26T05:48:13;8.00;;;5.20;;
75526;SDS011;64107;49.248;7.006;2023-06-26T05:50:39;7.60;;;4.63;;
75526;SDS011;64107;49.248;7.006;2023-06-26T05:53:07;7.20;;;5.20;;
75526;SDS011;64107;49.248;7.006;2023-06-26T05:55:33;9.63;;;4.93;;
75526;SDS011;64107;49.248;7.006;2023-06-26T05:58:01;8.80;;;5.05;;
75526;SDS011;64107;49.248;7.006;2023-06-26T06:00:28;8.68;;;5.32;;
75526;SDS011;64107;49.248;7.006;2023-06-26T06:02:54;7.53;;;5.07;;
75526;SDS011;64107;49.248;7.006;2023-06-26T06:05:20;6.85;;;4.57;;
75526;SDS011;64107;49.248;7.006;2023-06-26T06:07:47;6.47;;;4.63;;
75526;SDS011;64107;49.248;7.006;2023-06-26T06:10:13;7.45;;;6.35;;
75526;SDS011;64107;49.248;7.006;2023-06-26T06:12:39;8.90;;;5.20;;
75526;SDS011;64107;49.248;7.006;2023-06-26T06:15:06;9.63;;;6.28;;
75526;SDS011;64107;49.248;7.006;2023-06-26T06:17:32;11.40;;;6.68;;
75526;SDS011;64107;49.248;7.006;2023-06-26T06:19:58;7.53;;;5.05;;
75526;SDS011;64107;49.248;7.006;2023-06-26T06:22:24;9.45;;;6.18;;
75526;SDS011;64107;49.248;7.006;2023-06-26T06:24:50;7.13;;;4.22;;
75526;SDS011;64107;49.248;7.006;2023-06-26T06:27:17;9.05;;;7.13;;
75526;SDS011;64107;49.248;7.006;2023-06-26T06:29:43;7.28;;;4.57;;
75526;SDS011;64107;49.248;7.006;2023-06-26T06:32:09;8.90;;;5.00;;
75526;SDS011;64107;49.248;7.006;2023-06-26T06:34:35;7.93;;;4.70;;
75526;SDS011;64107;49.248;7.006;2023-06-26T06:37:02;5.75;;;4.45;;
75526;SDS011;64107;49.248;7.006;2023-06-26T06:39:28;7.70;;;4.45;;
75526;SDS011;64107;49.248;7.006;2023-06-26T06:41:54;6.22;;;3.58;;
75526;SDS011;64107;49.248;7.006;2023-06-26T06:44:20;4.70;;;3.85;;
75526;SDS011;64107;49.248;7.006;2023-06-26T06:46:47;6.20;;;3.45;;
75526;SDS011;64107;49.248;7.006;2023-06-26T06:49:13;4.85;;;4.30;;
75526;SDS011;64107;49.248;7.006;2023-06-26T06:51:39;5.68;;;4.05;;
75526;SDS011;64107;49.248;7.006;2023-06-26T06:54:05;8.00;;;3.50;;
75526;SDS011;64107;49.248;7.006;2023-06-26T06:56:31;6.75;;;4.22;;
75526;SDS011;64107;49.248;7.006;2023-06-26T06:58:57;6.45;;;5.28;;
75526;SDS011;64107;49.248;7.006;2023-06-26T07:01:23;8.10;;;4.25;;
75526;SDS011;64107;49.248;7.006;2023-06-26T07:03:49;4.72;;;3.50;;
75526;SDS011;64107;49.248;7.006;2023-06-26T07:06:15;6.38;;;4.05;;
75526;SDS011;64107;49.248;7.006;2023-06-26T07:08:41;7.43;;;3.38;;
75526;SDS011;64107;49.248;7.006;2023-06-26T07:11:07;5.57;;;3.28;;
75526;SDS011;64107;49.248;7.006;2023-06-26T07:13:34;5.78;;;2.65;;
75526;SDS011;64107;49.248;7.006;2023-06-26T07:16:00;5.03;;;3.50;;
75526;SDS011;64107;49.248;7.006;2023-06-26T07:18:26;5.90;;;3.50;;
75526;SDS011;64107;49.248;7.006;2023-06-26T07:20:52;4.57;;;3.10;;
75526;SDS011;64107;49.248;7.006;2023-06-26T07:23:18;7.80;;;3.38;;
75526;SDS011;64107;49.248;7.006;2023-06-26T07:25:44;7.95;;;3.13;;
75526;SDS011;64107;49.248;7.006;2023-06-26T07:28:11;2.78;;;1.85;;
75526;SDS011;64107;49.248;7.006;2023-06-26T07:30:37;3.83;;;2.53;;
75526;SDS011;64107;49.248;7.006;2023-06-26T07:33:03;3.50;;;2.65;;
75526;SDS011;64107;49.248;7.006;2023-06-26T07:35:29;5.28;;;2.75;;
75526;SDS011;64107;49.248;7.006;2023-06-26T07:37:55;5.32;;;2.60;;
75526;SDS011;64107;49.248;7.006;2023-06-26T07:40:21;3.95;;;1.75;;
75526;SDS011;64107;49.248;7.006;2023-06-26T07:42:48;4.10;;;2.05;;
75526;SDS011;64107;49.248;7.006;2023-06-26T07:45:15;5.95;;;2.92;;
75526;SDS011;64107;49.248;7.006;2023-06-26T07:47:41;2.50;;;2.10;;
75526;SDS011;64107;49.248;7.006;2023-06-26T07:50:07;3.47;;;2.70;;
75526;SDS011;64107;49.248;7.006;2023-06-26T07:52:33;3.80;;;2.42;;
75526;SDS011;64107;49.248;7.006;2023-06-26T07:55:00;2.63;;;2.05;;
75526;SDS011;64107;49.248;7.006;2023-06-26T07:57:26;4.50;;;2.30;;
75526;SDS011;64107;49.248;7.006;2023-06-26T07:59:52;2.92;;;2.13;;
75526;SDS011;64107;49.248;7.006;2023-06-26T08:02:18;3.67;;;2.10;;
75526;SDS011;64107;49.248;7.006;2023-06-26T08:04:44;4.88;;;2.05;;
75526;SDS011;64107;49.248;7.006;2023-06-26T08:07:10;2.58;;;2.00;;
75526;SDS011;64107;49.248;7.006;2023-06-26T08:09:38;5.50;;;2.30;;
75526;SDS011;64107;49.248;7.006;2023-06-26T08:12:04;2.65;;;1.98;;
75526;SDS011;64107;49.248;7.006;2023-06-26T08:14:31;2.45;;;1.85;;
75526;SDS011;64107;49.248;7.006;2023-06-26T08:16:57;4.78;;;2.25;;
75526;SDS011;64107;49.248;7.006;2023-06-26T08:19:24;5.47;;;2.42;;
75526;SDS011;64107;49.248;7.006;2023-06-26T08:21:51;5.03;;;1.67;;
75526;SDS011;64107;49.248;7.006;2023-06-26T08:24:17;3.22;;;1.83;;
75526;SDS011;64107;49.248;7.006;2023-06-26T08:26:44;2.38;;;1.45;;
75526;SDS011;64107;49.248;7.006;2023-06-26T08:29:11;5.38;;;1.35;;
75526;SDS011;64107;49.248;7.006;2023-06-26T08:31:37;2.13;;;1.45;;
75526;SDS011;64107;49.248;7.006;2023-06-26T08:34:04;3.10;;;1.75;;
75526;SDS011;64107;49.248;7.006;2023-06-26T08:36:30;4.28;;;1.67;;
75526;SDS011;64107;49.248;7.006;2023-06-26T08:38:57;3.53;;;1.45;;
75526;SDS011;64107;49.248;7.006;2023-06-26T08:41:26;1.35;;;1.10;;
75526;SDS011;64107;49.248;7.006;2023-06-26T08:43:52;1.90;;;1.50;;
75526;SDS011;64107;49.248;7.006;2023-06-26T08:46:19;1.58;;;1.10;;
75526;SDS011;64107;49.248;7.006;2023-06-26T08:48:48;1.08;;;0.98;;
75526;SDS011;64107;49.248;7.006;2023-06-26T08:51:16;1.83;;;1.23;;
75526;SDS011;64107;49.248;7.006;2023-06-26T08:53:49;2.67;;;1.23;;
75526;SDS011;64107;49.248;7.006;2023-06-26T08:56:27;2.53;;;1.60;;
75526;SDS011;64107;49.248;7.006;2023-06-26T08:58:57;1.20;;;1.10;;
75526;SDS011;64107;49.248;7.006;2023-06-26T09:01:24;2.83;;;1.10;;
75526;SDS011;64107;49.248;7.006;2023-06-26T09:03:50;3.40;;;2.13;;
75526;SDS011;64107;49.248;7.006;2023-06-26T09:06:17;4.85;;;3.20;;
75526;SDS011;64107;49.248;7.006;2023-06-26T09:08:43;3.60;;;1.80;;
75526;SDS011;64107;49.248;7.006;2023-06-26T09:11:09;2.00;;;1.55;;
75526;SDS011;64107;49.248;7.006;2023-06-26T09:13:36;2.13;;;1.50;;
75526;SDS011;64107;49.248;7.006;2023-06-26T09:16:08;7.43;;;2.50;;
75526;SDS011;64107;49.248;7.006;2023-06-26T09:18:35;4.35;;;2.20;;
75526;SDS011;64107;49.248;7.006;2023-06-26T09:21:07;3.13;;;1.70;;
75526;SDS011;64107;49.248;7.006;2023-06-26T09:23:34;3.50;;;2.10;;
75526;SDS011;64107;49.248;7.006;2023-06-26T09:26:04;3.85;;;2.28;;
75526;SDS011;64107;49.248;7.006;2023-06-26T09:28:34;3.75;;;2.50;;
75526;SDS011;64107;49.248;7.006;2023-06-26T09:31:04;4.07;;;1.95;;
75526;SDS011;64107;49.248;7.006;2023-06-26T09:33:34;2.42;;;1.73;;
75526;SDS011;64107;49.248;7.006;2023-06-26T09:36:01;2.67;;;1.85;;
75526;SDS011;64107;49.248;7.006;2023-06-26T09:38:31;1.60;;;1.48;;
75526;SDS011;64107;49.248;7.006;2023-06-26T09:40:57;3.08;;;1.40;;
75526;SDS011;64107;49.248;7.006;2023-06-26T09:43:23;1.42;;;1.17;;
75526;SDS011;64107;49.248;7.006;2023-06-26T09:45:49;2.67;;;1.58;;
75526;SDS011;64107;49.248;7.006;2023-06-26T09:48:15;1.50;;;1.40;;
75526;SDS011;64107;49.248;7.006;2023-06-26T09:50:42;2.08;;;1.10;;
75526;SDS011;64107;49.248;7.006;2023-06-26T09:53:12;2.03;;;1.35;;
75526;SDS011;64107;49.248;7.006;2023-06-26T09:55:38;4.15;;;1.67;;
75526;SDS011;64107;49.248;7.006;2023-06-26T09:58:08;1.50;;;1.23;;
75526;SDS011;64107;49.248;7.006;2023-06-26T10:00:39;2.85;;;1.65;;
75526;SDS011;64107;49.248;7.006;2023-06-26T10:03:06;3.08;;;1.85;;
75526;SDS011;64107;49.248;7.006;2023-06-26T10:05:33;1.25;;;1.00;;
75526;SDS011;64107;49.248;7.006;2023-06-26T10:07:59;2.65;;;1.30;;
75526;SDS011;64107;49.248;7.006;2023-06-26T10:10:27;2.05;;;1.80;;
75526;SDS011;64107;49.248;7.006;2023-06-26T10:12:59;2.17;;;1.10;;
75526;SDS011;64107;49.248;7.006;2023-06-26T10:15:26;2.33;;;1.48;;
75526;SDS011;64107;49.248;7.006;2023-06-26T10:17:53;5.68;;;2.20;;
75526;SDS011;64107;49.248;7.006;2023-06-26T10:20:22;3.50;;;2.20;;
75526;SDS011;64107;49.248;7.006;2023-06-26T10:22:48;6.88;;;2.10;;
75526;SDS011;64107;49.248;7.006;2023-06-26T10:25:18;5.70;;;2.63;;
75526;SDS011;64107;49.248;7.006;2023-06-26T10:27:47;3.45;;;2.00;;
75526;SDS011;64107;49.248;7.006;2023-06-26T10:30:20;3.88;;;2.25;;
75526;SDS011;64107;49.248;7.006;2023-06-26T10:32:47;3.10;;;2.25;;
75526;SDS011;64107;49.248;7.006;2023-06-26T10:35:14;3.35;;;1.95;;
75526;SDS011;64107;49.248;7.006;2023-06-26T10:37:41;3.33;;;1.95;;
75526;SDS011;64107;49.248;7.006;2023-06-26T10:40:08;2.78;;;1.80;;
75526;SDS011;64107;49.248;7.006;2023-06-26T10:42:35;2.70;;;1.80;;
75526;SDS011;64107;49.248;7.006;2023-06-26T10:45:13;2.75;;;1.80;;
75526;SDS011;64107;49.248;7.006;2023-06-26T10:47:41;2.15;;;1.25;;
75526;SDS011;64107;49.248;7.006;2023-06-26T10:50:24;2.75;;;1.98;;
75526;SDS011;64107;49.248;7.006;2023-06-26T10:55:58;4.45;;;1.50;;
75526;SDS011;64107;49.248;7.006;2023-06-26T10:58:32;4.13;;;1.95;;
75526;SDS011;64107;49.248;7.006;2023-06-26T11:03:41;3.97;;;1.63;;
75526;SDS011;64107;49.248;7.006;2023-06-26T11:06:09;2.60;;;1.35;;
75526;SDS011;64107;49.248;7.006;2023-06-26T11:11:12;2.63;;;1.13;;
75526;SDS011;64107;49.248;7.006;2023-06-26T11:13:39;5.20;;;1.73;;
75526;SDS011;64107;49.248;7.006;2023-06-26T11:16:06;1.77;;;1.15;;
75526;SDS011;64107;49.248;7.006;2023-06-26T11:18:32;2.83;;;1.10;;
75526;SDS011;64107;49.248;7.006;2023-06-26T11:21:05;2.92;;;1.55;;
75526;SDS011;64107;49.248;7.006;2023-06-26T11:23:31;4.15;;;2.35;;
75526;SDS011;64107;49.248;7.006;2023-06-26T11:26:12;3.25;;;1.45;;
75526;SDS011;64107;49.248;7.006;2023-06-26T11:28:38;3.13;;;1.55;;
75526;SDS011;64107;49.248;7.006;2023-06-26T11:31:06;3.20;;;1.33;;
75526;SDS011;64107;49.248;7.006;2023-06-26T11:33:32;2.67;;;1.17;;
75526;SDS011;64107;49.248;7.006;2023-06-26T11:36:07;2.80;;;1.20;;
75526;SDS011;64107;49.248;7.006;2023-06-26T11:38:37;1.95;;;0.90;;
75526;SDS011;64107;49.248;7.006;2023-06-26T11:41:03;5.10;;;1.73;;
75526;SDS011;64107;49.248;7.006;2023-06-26T11:43:33;2.45;;;1.08;;
75526;SDS011;64107;49.248;7.006;2023-06-26T11:45:59;4.03;;;1.38;;
75526;SDS011;64107;49.248;7.006;2023-06-26T11:48:25;2.38;;;1.38;;
75526;SDS011;64107;49.248;7.006;2023-06-26T11:50:54;2.85;;;1.33;;
75526;SDS011;64107;49.248;7.006;2023-06-26T11:53:20;2.20;;;0.95;;
75526;SDS011;64107;49.248;7.006;2023-06-26T11:55:46;2.17;;;1.27;;
75526;SDS011;64107;49.248;7.006;2023-06-26T11:58:12;3.88;;;2.20;;
75526;SDS011;64107;49.248;7.006;2023-06-26T12:00:41;1.33;;;1.05;;
75526;SDS011;64107;49.248;7.006;2023-06-26T12:03:08;1.38;;;0.77;;
75526;SDS011;64107;49.248;7.006;2023-06-26T12:05:35;1.85;;;1.27;;
75526;SDS011;64107;49.248;7.006;2023-06-26T12:08:01;1.42;;;0.98;;
75526;SDS011;64107;49.248;7.006;2023-06-26T12:10:28;3.17;;;1.05;;
75526;SDS011;64107;49.248;7.006;2023-06-26T12:12:54;3.90;;;1.40;;
75526;SDS011;64107;49.248;7.006;2023-06-26T12:15:23;2.58;;;1.13;;
75526;SDS011;64107;49.248;7.006;2023-06-26T12:17:49;1.58;;;0.70;;
75526;SDS011;64107;49.248;7.006;2023-06-26T12:20:19;4.15;;;1.30;;
75526;SDS011;64107;49.248;7.006;2023-06-26T12:22:46;3.15;;;1.17;;
75526;SDS011;64107;49.248;7.006;2023-06-26T12:25:21;3.67;;;1.40;;
75526;SDS011;64107;49.248;7.006;2023-06-26T12:27:47;2.20;;;1.40;;
75526;SDS011;64107;49.248;7.006;2023-06-26T12:30:14;2.58;;;1.08;;
75526;SDS011;64107;49.248;7.006;2023-06-26T12:32:43;2.00;;;0.82;;
75526;SDS011;64107;49.248;7.006;2023-06-26T12:35:12;2.00;;;0.82;;
75526;SDS011;64107;49.248;7.006;2023-06-26T12:37:39;4.78;;;1.40;;
75526;SDS011;64107;49.248;7.006;2023-06-26T12:40:16;3.75;;;1.45;;
75526;SDS011;64107;49.248;7.006;2023-06-26T12:42:49;1.00;;;0.65;;
75526;SDS011;64107;49.248;7.006;2023-06-26T12:45:15;2.13;;;0.95;;
75526;SDS011;64107;49.248;7.006;2023-06-26T12:47:41;1.75;;;1.10;;
75526;SDS011;64107;49.248;7.006;2023-06-26T12:50:07;2.30;;;1.00;;
75526;SDS011;64107;49.248;7.006;2023-06-26T12:52:34;1.77;;;0.80;;
75526;SDS011;64107;49.248;7.006;2023-06-26T12:55:00;1.85;;;1.17;;
75526;SDS011;64107;49.248;7.006;2023-06-26T12:57:26;5.50;;;1.40;;
75526;SDS011;64107;49.248;7.006;2023-06-26T12:59:52;4.25;;;1.17;;
75526;SDS011;64107;49.248;7.006;2023-06-26T13:02:18;2.35;;;1.20;;
75526;SDS011;64107;49.248;7.006;2023-06-26T13:04:44;2.53;;;1.00;;
75526;SDS011;64107;49.248;7.006;2023-06-26T13:07:10;1.65;;;0.93;;
75526;SDS011;64107;49.248;7.006;2023-06-26T13:09:37;1.52;;;1.08;;
75526;SDS011;64107;49.248;7.006;2023-06-26T13:12:04;1.20;;;0.80;;
75526;SDS011;64107;49.248;7.006;2023-06-26T13:14:31;5.85;;;1.10;;
75526;SDS011;64107;49.248;7.006;2023-06-26T13:16:57;1.45;;;0.57;;
75526;SDS011;64107;49.248;7.006;2023-06-26T13:19:25;1.40;;;0.63;;
75526;SDS011;64107;49.248;7.006;2023-06-26T13:21:51;2.05;;;1.13;;
75526;SDS011;64107;49.248;7.006;2023-06-26T13:24:17;2.15;;;0.68;;
75526;SDS011;64107;49.248;7.006;2023-06-26T13:26:43;1.73;;;0.90;;
75526;SDS011;64107;49.248;7.006;2023-06-26T13:29:09;2.35;;;0.82;;
75526;SDS011;64107;49.248;7.006;2023-06-26T13:31:35;1.75;;;0.80;;
75526;SDS011;64107;49.248;7.006;2023-06-26T13:34:03;3.10;;;1.13;;
75526;SDS011;64107;49.248;7.006;2023-06-26T13:36:30;3.88;;;1.58;;
75526;SDS011;64107;49.248;7.006;2023-06-26T13:38:58;1.83;;;0.63;;
75526;SDS011;64107;49.248;7.006;2023-06-26T13:41:25;3.85;;;1.45;;
75526;SDS011;64107;49.248;7.006;2023-06-26T13:43:51;1.27;;;0.60;;
75526;SDS011;64107;49.248;7.006;2023-06-26T13:46:17;3.17;;;0.80;;
75526;SDS011;64107;49.248;7.006;2023-06-26T13:48:44;1.80;;;1.25;;
75526;SDS011;64107;49.248;7.006;2023-06-26T13:51:10;2.55;;;0.80;;
75526;SDS011;64107;49.248;7.006;2023-06-26T13:53:36;4.68;;;0.90;;
75526;SDS011;64107;49.248;7.006;2023-06-26T13:56:02;1.58;;;0.82;;
75526;SDS011;64107;49.248;7.006;2023-06-26T13:58:28;2.25;;;0.85;;
75526;SDS011;64107;49.248;7.006;2023-06-26T14:00:57;1.23;;;0.70;;
75526;SDS011;64107;49.248;7.006;2023-06-26T14:03:23;2.03;;;0.95;;
75526;SDS011;64107;49.248;7.006;2023-06-26T14:05:50;4.03;;;1.13;;
75526;SDS011;64107;49.248;7.006;2023-06-26T14:08:17;1.27;;;0.98;;
75526;SDS011;64107;49.248;7.006;2023-06-26T14:10:43;2.42;;;1.00;;
75526;SDS011;64107;49.248;7.006;2023-06-26T14:13:09;1.40;;;0.70;;
75526;SDS011;64107;49.248;7.006;2023-06-26T14:15:36;1.65;;;0.80;;
75526;SDS011;64107;49.248;7.006;2023-06-26T14:18:05;2.60;;;1.05;;
75526;SDS011;64107;49.248;7.006;2023-06-26T14:20:31;1.55;;;0.60;;
75526;SDS011;64107;49.248;7.006;2023-06-26T14:22:57;2.40;;;0.73;;
75526;SDS011;64107;49.248;7.006;2023-06-26T14:25:24;4.10;;;0.85;;
75526;SDS011;64107;49.248;7.006;2023-06-26T14:27:53;3.42;;;1.17;;
75526;SDS011;64107;49.248;7.006;2023-06-26T14:30:23;2.13;;;0.80;;
75526;SDS011;64107;49.248;7.006;2023-06-26T14:32:49;3.47;;;1.35;;
75526;SDS011;64107;49.248;7.006;2023-06-26T14:35:15;0.50;;;0.50;;
75526;SDS011;64107;49.248;7.006;2023-06-26T14:37:41;3.28;;;0.65;;
75526;SDS011;64107;49.248;7.006;2023-06-26T14:40:09;4.40;;;1.20;;
75526;SDS011;64107;49.248;7.006;2023-06-26T14:42:35;3.30;;;0.98;;
75526;SDS011;64107;49.248;7.006;2023-06-26T14:45:01;0.73;;;0.47;;
75526;SDS011;64107;49.248;7.006;2023-06-26T14:47:28;3.63;;;0.82;;
75526;SDS011;64107;49.248;7.006;2023-06-26T14:49:54;2.08;;;0.90;;
75526;SDS011;64107;49.248;7.006;2023-06-26T14:52:20;5.25;;;1.20;;
75526;SDS011;64107;49.248;7.006;2023-06-26T14:54:46;2.67;;;0.85;;
75526;SDS011;64107;49.248;7.006;2023-06-26T14:57:12;1.88;;;0.55;;
75526;SDS011;64107;49.248;7.006;2023-06-26T14:59:38;3.38;;;1.00;;
75526;SDS011;64107;49.248;7.006;2023-06-26T15:02:04;1.40;;;0.60;;